Terminal Aerodrome Forecast
Issued by NWS

Home | Current Version | Previous Version | Text Only | Print | Product List | Glossary On
Versions: 1 2 3 4 5 6 7 8 9 10 11 12 13 14
000
FTUS42 KMHX 030744 AAA
TAFISO
TAF AMD
KISO 030744Z 0308/0406 28004KT P6SM VCSH SCT010 OVC020
     FM030930 00000KT 5SM BR VCSH SCT008 OVC015
     FM031500 24012G20KT P6SM VCTS BKN050CB
     FM040300 20007KT P6SM VCSH SCT010 BKN100
      AMD LTD TO CLD VIS AND WIND=

USA.gov is the U.S. government's official web portal to all federal, state and local government web resources and services.